createdAt,value
2023-05-11T00:00:48.607Z,3.30
2023-05-11T00:03:18.354Z,3.00
2023-05-11T00:05:50.259Z,2.43
2023-05-11T00:08:20.174Z,2.73
2023-05-11T00:10:48.983Z,2.40
2023-05-11T00:13:19.036Z,2.57
2023-05-11T00:15:48.148Z,2.80
2023-05-11T00:18:19.475Z,2.90
2023-05-11T00:20:49.011Z,3.10
2023-05-11T00:23:17.955Z,2.53
2023-05-11T00:25:47.086Z,2.93
2023-05-11T00:28:15.272Z,3.30
2023-05-11T00:30:45.044Z,3.00
2023-05-11T00:33:13.150Z,2.87
2023-05-11T00:35:42.053Z,2.97
2023-05-11T00:38:12.260Z,3.03
2023-05-11T00:40:40.465Z,2.63
2023-05-11T00:43:08.733Z,3.30
2023-05-11T00:45:37.401Z,3.07
2023-05-11T00:48:10.137Z,2.80
2023-05-11T00:50:39.040Z,2.83
2023-05-11T00:53:07.104Z,2.57
2023-05-11T00:55:38.051Z,2.67
2023-05-11T00:58:06.683Z,2.87
2023-05-11T01:00:37.150Z,2.63
2023-05-11T01:03:05.883Z,2.70
2023-05-11T01:05:50.093Z,2.70
2023-05-11T01:08:22.811Z,3.07
2023-05-11T01:11:01.941Z,2.87
2023-05-11T01:13:34.930Z,2.60
2023-05-11T01:16:13.675Z,3.00
2023-05-11T01:18:48.050Z,2.87
2023-05-11T01:21:18.946Z,2.97
2023-05-11T01:24:22.654Z,2.97
2023-05-11T01:27:07.422Z,3.03
2023-05-11T01:30:21.873Z,3.00
2023-05-11T01:32:52.831Z,3.10
2023-05-11T01:35:25.090Z,3.03
2023-05-11T01:37:57.103Z,2.97
2023-05-11T01:40:31.122Z,2.87
2023-05-11T01:43:03.107Z,2.87
2023-05-11T01:45:39.165Z,3.30
2023-05-11T01:48:12.682Z,2.90
2023-05-11T01:50:42.284Z,2.70
2023-05-11T01:53:13.373Z,3.40
2023-05-11T01:55:45.090Z,2.90
2023-05-11T01:58:16.437Z,3.27
2023-05-11T02:00:48.099Z,2.63
2023-05-11T02:03:17.640Z,2.80
2023-05-11T02:05:49.087Z,2.80
2023-05-11T02:08:24.070Z,2.83
2023-05-11T02:10:53.293Z,2.90
2023-05-11T02:13:25.086Z,3.10
2023-05-11T02:15:57.575Z,2.80
2023-05-11T02:18:26.233Z,2.70
2023-05-11T02:21:01.041Z,3.40
2023-05-11T02:23:34.910Z,3.00
2023-05-11T02:26:05.103Z,3.00
2023-05-11T02:28:36.461Z,3.03
2023-05-11T02:31:16.795Z,2.83
2023-05-11T02:33:50.762Z,2.90
2023-05-11T02:36:25.466Z,3.00
2023-05-11T02:39:03.614Z,2.87
2023-05-11T02:41:35.299Z,3.20
2023-05-11T02:44:07.116Z,2.83
2023-05-11T02:46:41.191Z,2.77
2023-05-11T02:49:11.417Z,3.17
2023-05-11T02:51:42.505Z,3.10
2023-05-11T02:54:11.890Z,3.00
2023-05-11T02:56:47.372Z,3.23
2023-05-11T02:59:17.113Z,3.70
2023-05-11T03:01:47.416Z,3.33
2023-05-11T03:04:15.757Z,3.07
2023-05-11T03:06:43.830Z,3.10
2023-05-11T03:09:15.228Z,3.60
2023-05-11T03:11:48.238Z,2.97
2023-05-11T03:14:18.115Z,3.23
2023-05-11T03:16:49.881Z,3.20
2023-05-11T03:19:19.574Z,3.23
2023-05-11T03:21:48.751Z,3.20
2023-05-11T03:24:24.195Z,3.10
2023-05-11T03:26:53.618Z,3.30
2023-05-11T03:29:32.113Z,3.23
2023-05-11T03:32:01.686Z,3.10
2023-05-11T03:34:33.810Z,3.50
2023-05-11T03:37:02.480Z,3.33
2023-05-11T03:39:32.339Z,3.53
2023-05-11T03:42:01.757Z,3.80
2023-05-11T03:44:33.096Z,3.23
2023-05-11T03:47:09.171Z,3.97
2023-05-11T03:49:38.912Z,3.57
2023-05-11T03:52:08.157Z,3.40
2023-05-11T03:54:36.828Z,4.67
2023-05-11T03:57:07.219Z,3.83
2023-05-11T03:59:39.474Z,4.20
2023-05-11T04:02:09.205Z,3.47
2023-05-11T04:04:42.037Z,3.80
2023-05-11T04:07:10.207Z,3.07
2023-05-11T04:09:38.391Z,3.10
2023-05-11T04:12:06.982Z,2.90
2023-05-11T04:14:35.204Z,3.47
2023-05-11T04:17:03.346Z,3.30
2023-05-11T04:19:33.317Z,3.50
2023-05-11T04:22:03.164Z,3.30
2023-05-11T04:24:31.711Z,2.90
2023-05-11T04:26:59.907Z,2.80
2023-05-11T04:29:28.026Z,2.80
2023-05-11T04:31:57.360Z,3.10
2023-05-11T04:34:27.346Z,3.00
2023-05-11T04:36:58.109Z,2.93
2023-05-11T04:39:28.664Z,2.57
2023-05-11T04:41:56.832Z,2.70
2023-05-11T04:44:25.913Z,2.93
2023-05-11T04:46:59.282Z,3.07
2023-05-11T04:49:27.983Z,3.17
2023-05-11T04:51:58.432Z,2.77
2023-05-11T04:54:27.304Z,3.03
2023-05-11T04:56:56.616Z,4.00
2023-05-11T04:59:26.997Z,3.83
2023-05-11T05:01:55.118Z,3.63
2023-05-11T05:04:28.218Z,3.77
2023-05-11T05:06:56.317Z,4.20
2023-05-11T05:09:26.387Z,4.60
2023-05-11T05:11:55.333Z,3.50
2023-05-11T05:14:24.182Z,3.23
2023-05-11T05:16:55.290Z,3.37
2023-05-11T05:19:24.190Z,4.77
2023-05-11T05:21:53.038Z,3.57
2023-05-11T05:24:21.572Z,3.23
2023-05-11T05:26:51.104Z,3.77
2023-05-11T05:29:19.492Z,3.63
2023-05-11T05:31:48.278Z,3.43
2023-05-11T05:34:16.704Z,4.40
2023-05-11T05:36:49.507Z,2.93
2023-05-11T05:39:17.611Z,2.90
2023-05-11T05:41:46.540Z,2.97
2023-05-11T05:44:17.212Z,2.93
2023-05-11T05:46:45.753Z,4.00
2023-05-11T05:49:17.196Z,2.80
2023-05-11T05:51:45.426Z,2.67
2023-05-11T05:54:15.240Z,3.13
2023-05-11T05:56:44.805Z,2.60
2023-05-11T05:59:14.380Z,2.60
2023-05-11T06:01:46.423Z,2.33
2023-05-11T06:04:16.811Z,2.97
2023-05-11T06:06:47.201Z,3.93
2023-05-11T06:09:15.339Z,2.97
2023-05-11T06:11:44.200Z,2.23
2023-05-11T06:14:13.691Z,2.50
2023-05-11T06:16:44.058Z,2.20
2023-05-11T06:19:13.554Z,2.77
2023-05-11T06:21:43.025Z,2.17
2023-05-11T06:24:12.335Z,2.93
2023-05-11T06:26:43.215Z,2.57
2023-05-11T06:29:12.184Z,2.27
2023-05-11T06:31:41.333Z,2.53
2023-05-11T06:34:12.474Z,2.50
2023-05-11T06:36:41.755Z,2.77
2023-05-11T06:39:10.017Z,2.17
2023-05-11T06:41:38.707Z,2.13
2023-05-11T06:44:07.204Z,2.53
2023-05-11T06:46:38.918Z,2.00
2023-05-11T06:49:09.262Z,2.27
2023-05-11T06:51:38.897Z,2.30
2023-05-11T06:54:08.253Z,2.20
2023-05-11T06:56:39.243Z,2.20
2023-05-11T06:59:08.246Z,2.17
2023-05-11T07:01:36.511Z,2.30
2023-05-11T07:04:05.325Z,2.53
2023-05-11T07:06:33.884Z,2.53
2023-05-11T07:09:04.492Z,2.80
2023-05-11T07:11:32.663Z,2.50
2023-05-11T07:14:04.480Z,2.47
2023-05-11T07:16:32.652Z,2.20
2023-05-11T07:19:00.949Z,2.40
2023-05-11T07:21:29.466Z,1.60
2023-05-11T07:23:58.254Z,3.67
2023-05-11T07:26:27.780Z,2.70
2023-05-11T07:29:02.289Z,2.93
2023-05-11T07:31:30.447Z,3.07
2023-05-11T07:33:58.733Z,5.80
2023-05-11T07:36:26.911Z,3.40
2023-05-11T07:38:55.194Z,2.17
2023-05-11T07:41:26.706Z,3.53
2023-05-11T07:43:56.938Z,3.33
2023-05-11T07:46:25.436Z,2.70
2023-05-11T07:49:03.539Z,2.47
2023-05-11T07:51:36.288Z,7.50
2023-05-11T07:54:04.828Z,4.93
2023-05-11T07:56:36.122Z,3.73
2023-05-11T07:59:05.824Z,3.03
2023-05-11T08:01:34.029Z,3.77
2023-05-11T08:04:02.477Z,2.20
2023-05-11T08:06:30.562Z,2.50
2023-05-11T08:09:00.290Z,5.40
2023-05-11T08:11:34.961Z,4.30
2023-05-11T08:14:03.860Z,2.90
2023-05-11T08:16:33.485Z,2.30
2023-05-11T08:19:01.740Z,3.60
2023-05-11T08:21:30.609Z,2.77
2023-05-11T08:24:00.404Z,2.30
2023-05-11T08:26:29.479Z,4.20
2023-05-11T08:28:57.664Z,4.93
2023-05-11T08:31:25.859Z,3.20
2023-05-11T08:33:55.685Z,2.20
2023-05-11T08:36:24.226Z,2.80
2023-05-11T08:38:58.979Z,2.30
2023-05-11T08:41:28.282Z,1.60
2023-05-11T08:43:58.397Z,1.90
2023-05-11T08:46:30.656Z,1.80
2023-05-11T08:49:01.364Z,2.43
2023-05-11T08:51:30.078Z,1.70
2023-05-11T08:53:59.828Z,2.10
2023-05-11T08:56:53.128Z,1.70
2023-05-11T08:59:22.129Z,1.70
2023-05-11T09:01:52.635Z,2.20
2023-05-11T09:04:23.955Z,1.87
2023-05-11T09:06:52.395Z,2.23
2023-05-11T09:09:21.436Z,2.30
2023-05-11T09:11:50.568Z,1.90
2023-05-11T09:14:19.509Z,1.43
2023-05-11T09:16:47.711Z,2.00
2023-05-11T09:19:16.941Z,1.60
2023-05-11T09:21:46.698Z,2.00
2023-05-11T09:24:15.097Z,1.80
2023-05-11T09:26:43.241Z,2.50
2023-05-11T09:29:11.703Z,2.73
2023-05-11T09:31:45.372Z,2.17
2023-05-11T09:34:18.350Z,1.93
2023-05-11T09:36:50.303Z,2.00
2023-05-11T09:39:35.211Z,2.40
2023-05-11T09:42:16.720Z,2.53
2023-05-11T09:44:45.614Z,2.03
2023-05-11T09:47:14.891Z,1.70
2023-05-11T09:49:44.314Z,3.23
2023-05-11T09:52:18.339Z,2.10
2023-05-11T09:54:48.028Z,2.00
2023-05-11T09:57:27.014Z,1.70
2023-05-11T09:59:57.905Z,1.97
2023-05-11T10:02:27.626Z,2.00
2023-05-11T10:04:57.425Z,1.60
2023-05-11T10:07:29.025Z,1.70
2023-05-11T10:09:58.768Z,2.80
2023-05-11T10:12:53.346Z,2.57
2023-05-11T10:15:25.191Z,2.60
2023-05-11T10:17:59.812Z,2.30
2023-05-11T10:20:28.375Z,1.93
2023-05-11T10:22:58.408Z,2.50
2023-05-11T10:25:27.588Z,2.17
2023-05-11T10:27:56.618Z,2.47
2023-05-11T10:30:25.357Z,1.73
2023-05-11T10:32:55.011Z,1.90
2023-05-11T10:35:23.707Z,1.90
2023-05-11T10:37:51.886Z,2.20
2023-05-11T10:40:24.363Z,1.73
2023-05-11T10:43:24.014Z,2.10
2023-05-11T10:46:03.431Z,1.63
2023-05-11T10:49:06.948Z,1.87
2023-05-11T10:51:51.205Z,2.20
2023-05-11T10:54:34.188Z,2.70
2023-05-11T10:57:16.447Z,1.93
2023-05-11T11:00:44.415Z,2.40
2023-05-11T11:03:14.364Z,2.90
2023-05-11T11:05:47.256Z,2.53
2023-05-11T11:08:15.855Z,2.60
2023-05-11T11:10:46.634Z,2.60
2023-05-11T11:13:19.358Z,2.27
2023-05-11T11:16:23.576Z,1.80
2023-05-11T11:18:52.565Z,1.90
2023-05-11T11:21:42.686Z,2.00
2023-05-11T11:24:31.380Z,1.83
2023-05-11T11:27:03.320Z,3.03
2023-05-11T11:29:32.399Z,3.60
2023-05-11T11:32:27.411Z,2.50
2023-05-11T11:34:56.513Z,2.63
2023-05-11T11:37:25.411Z,1.87
2023-05-11T11:40:13.954Z,1.83
2023-05-11T11:42:44.890Z,1.85
2023-05-11T11:45:34.035Z,1.73
2023-05-11T11:51:10.608Z,1.83
2023-05-11T11:54:06.811Z,2.38
2023-05-11T11:56:41.492Z,3.38
2023-05-11T11:59:14.047Z,1.85
2023-05-11T12:01:47.324Z,1.77
2023-05-11T12:04:54.706Z,1.67
2023-05-11T12:07:23.405Z,2.80
2023-05-11T12:09:52.943Z,2.15
2023-05-11T12:12:22.444Z,3.13
2023-05-11T12:14:52.669Z,2.22
2023-05-11T12:17:29.862Z,2.90
2023-05-11T12:20:14.411Z,1.88
2023-05-11T12:22:42.612Z,1.85
2023-05-11T12:25:15.318Z,1.70
2023-05-11T12:27:51.071Z,1.80
2023-05-11T12:30:27.440Z,1.70
2023-05-11T12:32:57.514Z,2.85
2023-05-11T12:35:31.378Z,1.98
2023-05-11T12:38:02.308Z,1.83
2023-05-11T12:40:31.390Z,1.77
2023-05-11T12:43:01.428Z,1.95
2023-05-11T12:45:35.817Z,2.03
2023-05-11T12:48:04.541Z,2.45
2023-05-11T12:50:32.658Z,2.17
2023-05-11T12:53:15.440Z,2.08
2023-05-11T12:55:44.156Z,2.20
2023-05-11T12:58:14.622Z,2.13
2023-05-11T13:00:56.487Z,3.20
2023-05-11T13:03:26.691Z,2.30
2023-05-11T13:06:05.666Z,1.50
2023-05-11T13:08:35.463Z,2.10
2023-05-11T13:11:21.433Z,2.25
2023-05-11T13:13:49.597Z,1.77
2023-05-11T13:16:27.514Z,1.70
2023-05-11T13:19:00.013Z,2.00
2023-05-11T13:21:29.396Z,2.05
2023-05-11T13:23:57.636Z,3.28
2023-05-11T13:26:27.471Z,2.95
2023-05-11T13:29:09.533Z,1.77
2023-05-11T13:31:45.656Z,1.73
2023-05-11T13:34:14.003Z,1.70
2023-05-11T13:36:42.186Z,1.60
2023-05-11T13:39:11.151Z,1.63
2023-05-11T13:41:39.476Z,1.67
2023-05-11T13:44:07.901Z,1.80
2023-05-11T13:46:39.488Z,3.03
2023-05-11T13:49:08.975Z,2.30
2023-05-11T13:51:37.297Z,1.50
2023-05-11T13:54:06.488Z,2.03
2023-05-11T13:56:35.144Z,1.80
2023-05-11T13:59:07.332Z,1.60
2023-05-11T14:01:35.479Z,1.50
2023-05-11T14:04:04.456Z,1.50
2023-05-11T14:06:36.286Z,1.60
2023-05-11T14:09:06.059Z,1.50
2023-05-11T14:11:36.869Z,1.90
2023-05-11T14:14:06.120Z,1.98
2023-05-11T14:16:34.312Z,1.50
2023-05-11T14:19:02.669Z,1.83
2023-05-11T14:21:30.932Z,1.90
2023-05-11T14:24:12.113Z,1.70
2023-05-11T14:26:42.371Z,1.80
2023-05-11T14:29:10.637Z,1.50
2023-05-11T14:31:39.255Z,1.60
2023-05-11T14:34:08.532Z,1.70
2023-05-11T14:36:38.503Z,1.70
2023-05-11T14:39:08.080Z,1.77
2023-05-11T14:41:39.502Z,2.15
2023-05-11T14:44:08.960Z,1.50
2023-05-11T14:46:38.602Z,1.80
2023-05-11T14:49:06.693Z,1.83
2023-05-11T14:51:37.438Z,2.05
2023-05-11T14:54:09.567Z,1.70
2023-05-11T14:56:37.692Z,1.45
2023-05-11T14:59:06.468Z,1.95
2023-05-11T15:01:35.610Z,1.60
2023-05-11T15:04:07.657Z,1.90
2023-05-11T15:06:36.225Z,1.45
2023-05-11T15:09:04.539Z,1.67
2023-05-11T15:11:34.245Z,1.67
2023-05-11T15:14:03.339Z,1.30
2023-05-11T15:16:34.447Z,2.00
2023-05-11T15:19:06.005Z,1.88
2023-05-11T15:21:34.322Z,1.50
2023-05-11T15:24:02.596Z,1.23
2023-05-11T15:26:31.144Z,1.90
2023-05-11T15:29:02.407Z,1.80
2023-05-11T15:31:30.557Z,1.90
2023-05-11T15:33:58.714Z,1.60
2023-05-11T15:36:29.661Z,1.73
2023-05-11T15:38:58.512Z,1.30
2023-05-11T15:41:30.434Z,1.40
2023-05-11T15:44:00.022Z,1.70
2023-05-11T15:46:28.380Z,1.50
2023-05-11T15:48:59.648Z,1.98
2023-05-11T15:51:29.352Z,1.58
2023-05-11T15:53:57.458Z,1.55
2023-05-11T15:56:29.414Z,2.08
2023-05-11T15:58:57.586Z,1.60
2023-05-11T16:01:27.117Z,1.30
2023-05-11T16:03:56.554Z,1.45
2023-05-11T16:06:26.597Z,2.03
2023-05-11T16:08:57.363Z,2.03
2023-05-11T16:11:26.087Z,1.65
2023-05-11T16:13:54.197Z,1.80
2023-05-11T16:16:23.586Z,1.77
2023-05-11T16:18:54.345Z,2.10
2023-05-11T16:21:22.491Z,1.80
2023-05-11T16:23:50.578Z,1.73
2023-05-11T16:26:20.564Z,1.58
2023-05-11T16:28:48.668Z,1.58
2023-05-11T16:31:16.846Z,2.03
2023-05-11T16:33:45.116Z,1.80
2023-05-11T16:36:14.781Z,1.65
2023-05-11T16:38:44.084Z,1.83
2023-05-11T16:41:12.561Z,1.70
2023-05-11T16:43:42.602Z,1.50
2023-05-11T16:46:10.794Z,1.63
2023-05-11T16:48:39.592Z,1.48
2023-05-11T16:51:10.341Z,1.70
2023-05-11T16:53:39.880Z,1.90
2023-05-11T16:56:08.204Z,2.03
2023-05-11T16:58:36.377Z,1.80
2023-05-11T17:01:04.885Z,2.00
2023-05-11T17:03:34.555Z,1.50
2023-05-11T17:06:05.522Z,1.90
2023-05-11T17:08:34.265Z,1.73
2023-05-11T17:11:04.124Z,1.50
2023-05-11T17:13:32.599Z,1.83
2023-05-11T17:16:01.448Z,1.70
2023-05-11T17:18:29.695Z,2.08
2023-05-11T17:20:57.985Z,1.95
2023-05-11T17:23:26.695Z,1.80
2023-05-11T17:25:58.974Z,1.40
2023-05-11T17:28:28.454Z,1.70
2023-05-11T17:30:57.673Z,1.80
2023-05-11T17:33:26.059Z,1.83
2023-05-11T17:35:54.659Z,1.92
2023-05-11T17:38:27.248Z,1.90
2023-05-11T17:40:55.385Z,2.05
2023-05-11T17:43:24.743Z,1.95
2023-05-11T17:45:55.688Z,1.90
2023-05-11T17:48:25.222Z,1.90
2023-05-11T17:50:53.398Z,1.80
2023-05-11T17:53:21.497Z,1.80
2023-05-11T17:55:53.058Z,1.85
2023-05-11T17:58:21.256Z,1.58
2023-05-11T18:00:52.291Z,1.70
2023-05-11T18:03:22.117Z,2.13
2023-05-11T18:05:51.639Z,2.00
2023-05-11T18:08:19.799Z,1.67
2023-05-11T18:10:47.947Z,1.83
2023-05-11T18:13:17.454Z,2.10
2023-05-11T18:15:45.969Z,2.17
2023-05-11T18:18:18.129Z,2.43
2023-05-11T18:20:48.103Z,1.87
2023-05-11T18:23:16.556Z,2.07
2023-05-11T18:25:48.481Z,2.27
2023-05-11T18:28:16.647Z,2.20
2023-05-11T18:30:44.742Z,2.10
2023-05-11T18:33:13.020Z,2.30
2023-05-11T18:35:42.222Z,2.03
2023-05-11T18:38:11.913Z,2.30
2023-05-11T18:40:41.435Z,2.23
2023-05-11T18:43:09.682Z,2.70
2023-05-11T18:45:37.886Z,2.30
2023-05-11T18:48:10.834Z,2.47
2023-05-11T18:50:42.388Z,2.53
2023-05-11T18:53:12.088Z,2.80
2023-05-11T18:55:52.024Z,3.33
2023-05-11T18:58:23.610Z,3.20
2023-05-11T19:00:53.760Z,3.67
2023-05-11T19:03:25.684Z,2.87
2023-05-11T19:05:53.972Z,2.93
2023-05-11T19:08:23.860Z,3.63
2023-05-11T19:10:51.969Z,3.40
2023-05-11T19:13:21.894Z,3.03
2023-05-11T19:15:50.238Z,3.03
2023-05-11T19:18:18.504Z,3.17
2023-05-11T19:20:47.695Z,3.17
2023-05-11T19:23:17.069Z,3.20
2023-05-11T19:25:46.640Z,2.87
2023-05-11T19:28:14.919Z,3.20
2023-05-11T19:30:42.992Z,3.20
2023-05-11T19:33:14.227Z,3.77
2023-05-11T19:35:42.639Z,4.73
2023-05-11T19:38:11.003Z,3.33
2023-05-11T19:40:46.019Z,3.38
2023-05-11T19:43:16.313Z,3.47
2023-05-11T19:45:45.796Z,4.00
2023-05-11T19:48:14.528Z,4.03
2023-05-11T19:50:50.320Z,4.00
2023-05-11T19:53:18.440Z,3.93
2023-05-11T19:55:48.085Z,3.70
2023-05-11T19:58:18.495Z,4.20
2023-05-11T20:00:46.895Z,4.00
2023-05-11T20:03:15.911Z,4.40
2023-05-11T20:05:45.572Z,3.73
2023-05-11T20:08:14.343Z,3.90
2023-05-11T20:10:43.495Z,3.70
2023-05-11T20:13:11.708Z,4.10
2023-05-11T20:15:41.729Z,4.22
2023-05-11T20:18:13.742Z,3.97
2023-05-11T20:20:41.934Z,3.70
2023-05-11T20:23:10.149Z,3.57
2023-05-11T20:25:43.552Z,3.80
2023-05-11T20:28:14.368Z,3.50
2023-05-11T20:30:43.931Z,4.10
2023-05-11T20:35:43.103Z,3.43
2023-05-11T20:38:12.021Z,3.57
2023-05-11T20:40:41.347Z,3.43
2023-05-11T20:43:09.640Z,3.30
2023-05-11T20:45:38.785Z,3.40
2023-05-11T20:48:08.410Z,3.73
2023-05-11T20:50:36.610Z,4.63
2023-05-11T20:53:05.763Z,3.80
2023-05-11T20:55:37.148Z,3.80
2023-05-11T20:58:05.345Z,3.47
2023-05-11T21:00:33.837Z,3.47
2023-05-11T21:03:02.033Z,4.00
2023-05-11T21:05:32.769Z,4.10
2023-05-11T21:08:00.954Z,4.07
2023-05-11T21:10:29.088Z,4.00
2023-05-11T21:12:58.313Z,4.70
2023-05-11T21:15:26.367Z,4.37
2023-05-11T21:17:54.913Z,4.00
2023-05-11T21:20:23.760Z,3.90
2023-05-11T21:22:57.867Z,3.80
2023-05-11T21:25:26.807Z,3.97
2023-05-11T21:27:54.926Z,4.33
2023-05-11T21:30:23.015Z,4.13
2023-05-11T21:32:52.616Z,4.30
2023-05-11T21:35:24.437Z,4.10
2023-05-11T21:37:54.179Z,4.20
2023-05-11T21:40:22.832Z,3.97
2023-05-11T21:42:50.986Z,4.40
2023-05-11T21:45:19.939Z,4.53
2023-05-11T21:47:52.410Z,4.03
2023-05-11T21:50:20.782Z,4.20
2023-05-11T21:52:49.769Z,3.90
2023-05-11T21:55:19.782Z,4.20
2023-05-11T21:57:47.840Z,4.23
2023-05-11T22:00:22.002Z,4.00
2023-05-11T22:02:50.453Z,3.90
2023-05-11T22:05:20.828Z,4.20
2023-05-11T22:07:48.885Z,3.90
2023-05-11T22:10:18.822Z,4.10
2023-05-11T22:12:48.778Z,3.80
2023-05-11T22:15:18.288Z,4.37
2023-05-11T22:17:46.852Z,4.10
2023-05-11T22:20:15.803Z,3.93
2023-05-11T22:22:43.942Z,3.90
2023-05-11T22:25:16.116Z,4.30
2023-05-11T22:27:46.358Z,4.57
2023-05-11T22:30:14.643Z,3.90
2023-05-11T22:32:43.845Z,4.47
2023-05-11T22:35:12.030Z,4.70
2023-05-11T22:37:40.341Z,4.10
2023-05-11T22:40:11.750Z,3.80
2023-05-11T22:42:42.833Z,4.30
2023-05-11T22:45:12.801Z,4.17
2023-05-11T22:47:41.003Z,4.70
2023-05-11T22:50:12.338Z,4.10
2023-05-11T22:52:43.522Z,3.83
2023-05-11T22:55:12.819Z,4.20
2023-05-11T22:57:40.975Z,4.30
2023-05-11T23:00:10.949Z,4.57
2023-05-11T23:02:40.985Z,4.63
2023-05-11T23:05:09.847Z,4.70
2023-05-11T23:07:38.061Z,4.63
2023-05-11T23:10:08.879Z,4.60
2023-05-11T23:12:37.023Z,4.23
2023-05-11T23:15:05.887Z,4.77
2023-05-11T23:17:38.506Z,4.40
2023-05-11T23:20:09.431Z,3.97
2023-05-11T23:22:37.750Z,4.40
2023-05-11T23:25:07.831Z,4.50
2023-05-11T23:27:35.894Z,4.33
2023-05-11T23:30:09.633Z,4.73
2023-05-11T23:32:37.705Z,4.67
2023-05-11T23:35:09.833Z,4.77
2023-05-11T23:37:38.757Z,4.30
2023-05-11T23:40:09.508Z,4.00
2023-05-11T23:42:38.832Z,4.40
2023-05-11T23:45:08.757Z,4.40
2023-05-11T23:47:42.700Z,4.40
2023-05-11T23:50:13.323Z,4.13
2023-05-11T23:52:41.422Z,4.07
2023-05-11T23:55:10.576Z,4.13
2023-05-11T23:57:40.127Z,4.30
